Airfield :
LOGIN :

Register | Disclaimer

   EN    FR    IT 

 










Legend :    VFR   Marginal VFR   IFR   Intensive IFR   Very Intensive IFR
Visi :
Ceiling :
>= 8 km
>= 3000ft
5 to 8 km
1000 to 3000 ft
1500m to 5 km
500 to 1000 ft
800 to 1500m
200 to 500 ft
< 800m
< 200 ft
Symbols :   Thunderstorms  Fog  Heavy snow  Heavy precipitations  Wind > 20 kt
SIGMETs :     Misc.  Thunderstorms  Icing  Turbulence  Mountain Waves  Volcanic Ashes







- Airport Elevation : 13 ft
- IATA code : LYX
- Download approach charts


EGMD - Lydd

CURRENT METAR :
  • 222020Z AUTO 20009KT 9999 NCD 17/15 Q1007

EXPIRED METARs :
  • 221950Z AUTO 19010KT 9999 SCT045/// 17/16 Q1007
  • 221920Z AUTO 19009KT 9999 NCD 17/16 Q1007
  • 221850Z AUTO 20007KT 9999 NCD 17/16 Q1007
  • 221820Z AUTO 21009KT 9999 NCD 17/16 Q1006
  • 221750Z 22011KT 9999 FEW015 18/16 Q1006

TAF TAF EGMD
Valid from the 22 at 21:00 until the 23 at 06:00 UTC


222001Z 2221/2306 19012KT 9999 FEW020
PROB30
TEMPO 2301/2305 BKN008
ATIS : +44 1797 322 422
No reported NOTAMs for that airfield.



MET'MAP, your aeronautical weather chart ! - Copyright ORBIFLY December 2007 - Disclaimer

ORBIFLY MET'MAP TEAM :

Programming & Development : Alexandra Zaïnal
Concept & Development : Baudouin d'Aumeries
Co-Development & Prog : Marc-Olivier Méhu
Technical & hardware support : Manuel Goepfert

Contact : metmap@orbifly.com




SOURCES & CREDITS :

   NOAA